createdAt,value
2023-02-25T00:02:04.488Z,98066.58
2023-02-25T00:04:10.474Z,98062.22
2023-02-25T00:06:15.834Z,98059.78
2023-02-25T00:08:21.241Z,98056.73
2023-02-25T00:10:27.017Z,98050.09
2023-02-25T00:12:32.416Z,98047.39
2023-02-25T00:14:38.235Z,98047.52
2023-02-25T00:16:44.328Z,98038.73
2023-02-25T00:18:50.153Z,98040.34
2023-02-25T00:20:55.280Z,98039.6
2023-02-25T00:23:00.814Z,98040.52
2023-02-25T00:25:06.513Z,98045.16
2023-02-25T00:27:12.153Z,98039.17
2023-02-25T00:29:18.161Z,98036.66
2023-02-25T00:31:24.200Z,98035.11
2023-02-25T00:33:30.821Z,98033.3
2023-02-25T00:35:35.933Z,98023.2
2023-02-25T00:37:41.575Z,98022.71
2023-02-25T00:39:47.216Z,98024.2
2023-02-25T00:41:52.623Z,98024.66
2023-02-25T00:43:58.276Z,98023.11
2023-02-25T00:46:04.511Z,98023.63
2023-02-25T00:48:10.068Z,98026.19
2023-02-25T00:50:15.390Z,98015.08
2023-02-25T00:52:20.496Z,98013.7
2023-02-25T00:54:25.692Z,98012.53
2023-02-25T00:56:31.060Z,98007.88
2023-02-25T00:58:36.533Z,98002.97
2023-02-25T01:00:52.852Z,98004.23
2023-02-25T01:02:58.403Z,97995.86
2023-02-25T01:05:04.179Z,97992.05
2023-02-25T01:07:10.061Z,97988.61
2023-02-25T01:09:15.683Z,97984.06
2023-02-25T01:11:21.239Z,97977.55
2023-02-25T01:13:26.542Z,97973.67
2023-02-25T01:15:32.107Z,97971.92
2023-02-25T01:17:37.532Z,97964.41
2023-02-25T01:19:42.935Z,97958.64
2023-02-25T01:21:48.171Z,97957.34
2023-02-25T01:23:53.296Z,97959.64
2023-02-25T01:25:58.534Z,97954.17
2023-02-25T01:28:04.057Z,97951.86
2023-02-25T01:30:09.154Z,97950.45
2023-02-25T01:32:17.628Z,97945.05
2023-02-25T01:34:25.756Z,97940.47
2023-02-25T01:36:30.985Z,97940.72
2023-02-25T01:38:36.319Z,97936.63
2023-02-25T01:40:41.834Z,97937.95
2023-02-25T01:42:46.905Z,97937.13
2023-02-25T01:44:52.789Z,97928.69
2023-02-25T01:46:58.095Z,97921.81
2023-02-25T01:49:03.936Z,97922.66
2023-02-25T01:51:09.209Z,97916.27
2023-02-25T01:53:14.332Z,97912.92
2023-02-25T01:55:19.792Z,97912.13
2023-02-25T01:57:25.112Z,97912.73
2023-02-25T01:59:30.242Z,97914.83
2023-02-25T02:01:35.738Z,97905.59
2023-02-25T02:03:41.037Z,97901.73
2023-02-25T02:05:49.143Z,97897.86
2023-02-25T02:07:54.277Z,97893.19
2023-02-25T02:09:59.764Z,97892.64
2023-02-25T02:12:05.007Z,97886.16
2023-02-25T02:14:10.394Z,97886.14
2023-02-25T02:16:15.902Z,97880.19
2023-02-25T02:18:21.692Z,97879.69
2023-02-25T02:20:27.084Z,97876.55
2023-02-25T02:22:32.288Z,97871.52
2023-02-25T02:24:37.712Z,97874.5
2023-02-25T02:26:43.400Z,97871.97
2023-02-25T02:28:48.724Z,97874.52
2023-02-25T02:30:54.367Z,97873.77
2023-02-25T02:33:00.285Z,97867.08
2023-02-25T02:35:05.849Z,97864.48
2023-02-25T02:37:11.019Z,97857.05
2023-02-25T02:39:16.076Z,97857.21
2023-02-25T02:41:21.717Z,97853.95
2023-02-25T02:43:27.272Z,97846.95
2023-02-25T02:45:32.626Z,97847.5
2023-02-25T02:47:37.998Z,97842.18
2023-02-25T02:49:43.436Z,97838.3
2023-02-25T02:51:48.752Z,97834.28
2023-02-25T02:53:54.300Z,97834.36
2023-02-25T02:55:59.886Z,97833.52
2023-02-25T02:58:05.244Z,97830.48
2023-02-25T03:00:10.690Z,97831.09
2023-02-25T03:02:16.268Z,97831.52
2023-02-25T03:04:21.549Z,97834.91
2023-02-25T03:06:27.370Z,97830.69
2023-02-25T03:08:32.591Z,97822.3
2023-02-25T03:10:37.916Z,97818
2023-02-25T03:12:43.378Z,97821.16
2023-02-25T03:14:48.878Z,97815.6
2023-02-25T03:16:54.404Z,97810.91
2023-02-25T03:19:00.008Z,97809.42
2023-02-25T03:21:05.092Z,97803.38
2023-02-25T03:23:10.788Z,97805.41
2023-02-25T03:25:16.100Z,97808.72
2023-02-25T03:27:21.474Z,97804.55
2023-02-25T03:29:26.658Z,97799.71
2023-02-25T03:31:32.108Z,97804.52
2023-02-25T03:33:37.446Z,97814.63
2023-02-25T03:35:43.582Z,97815.2
2023-02-25T03:37:48.998Z,97814.29
2023-02-25T03:39:54.255Z,97815.85
2023-02-25T03:41:59.450Z,97813.08
2023-02-25T03:44:04.489Z,97811.16
2023-02-25T03:46:09.986Z,97814.17
2023-02-25T03:48:15.630Z,97813.42
2023-02-25T03:50:21.194Z,97812.88
2023-02-25T03:52:26.483Z,97815.37
2023-02-25T03:54:31.952Z,97815.95
2023-02-25T03:56:37.793Z,97812.95
2023-02-25T03:58:43.129Z,97815.19
2023-02-25T04:00:48.490Z,97815.28
2023-02-25T04:02:54.005Z,97813.89
2023-02-25T04:04:59.510Z,97815.78
2023-02-25T04:07:05.281Z,97812.79
2023-02-25T04:09:11.023Z,97820.16
2023-02-25T04:11:16.109Z,97818.33
2023-02-25T04:13:21.448Z,97815.5
2023-02-25T04:15:26.610Z,97819.21
2023-02-25T04:17:32.144Z,97819.59
2023-02-25T04:19:37.639Z,97818.14
2023-02-25T04:21:42.938Z,97827.19
2023-02-25T04:23:48.072Z,97828.65
2023-02-25T04:25:53.246Z,97823.95
2023-02-25T04:27:58.581Z,97825.5
2023-02-25T04:30:03.932Z,97831.28
2023-02-25T04:32:09.942Z,97827.39
2023-02-25T04:34:15.487Z,97819.89
2023-02-25T04:36:21.014Z,97816.27
2023-02-25T04:38:27.187Z,97816.91
2023-02-25T04:40:32.578Z,97814.31
2023-02-25T04:42:37.911Z,97816.64
2023-02-25T04:44:43.178Z,97816.3
2023-02-25T04:46:48.919Z,97815.66
2023-02-25T04:48:54.693Z,97812.97
2023-02-25T04:50:59.868Z,97807.2
2023-02-25T04:53:04.915Z,97811.08
2023-02-25T04:55:10.255Z,97815.58
2023-02-25T04:57:15.418Z,97811.68
2023-02-25T04:59:20.836Z,97815.17
2023-02-25T05:01:26.026Z,97816.25
2023-02-25T05:03:31.537Z,97820.13
2023-02-25T05:05:36.611Z,97822.95
2023-02-25T05:07:41.915Z,97819.16
2023-02-25T05:09:47.168Z,97823.64
2023-02-25T05:11:52.407Z,97829.47
2023-02-25T05:13:57.942Z,97827.3
2023-02-25T05:16:03.385Z,97826.66
2023-02-25T05:18:09.114Z,97822.47
2023-02-25T05:20:15.011Z,97816.53
2023-02-25T05:22:20.748Z,97815.01
2023-02-25T05:24:25.912Z,97815.16
2023-02-25T05:26:31.269Z,97815.66
2023-02-25T05:28:36.545Z,97817.27
2023-02-25T05:30:41.776Z,97818.19
2023-02-25T05:32:47.773Z,97817.63
2023-02-25T05:34:53.732Z,97820.06
2023-02-25T05:36:58.975Z,97819.64
2023-02-25T05:39:04.311Z,97826.05
2023-02-25T05:41:09.838Z,97832.7
2023-02-25T05:43:15.117Z,97837.77
2023-02-25T05:45:20.383Z,97835.46
2023-02-25T05:47:25.723Z,97840.92
2023-02-25T05:49:31.929Z,97839.56
2023-02-25T05:51:37.302Z,97846.16
2023-02-25T05:53:42.610Z,97852.42
2023-02-25T05:55:47.863Z,97850.29
2023-02-25T05:57:53.308Z,97851.92
2023-02-25T06:00:01.961Z,97851.13
2023-02-25T06:02:07.517Z,97845.94
2023-02-25T06:04:13.311Z,97848.63
2023-02-25T06:06:22.891Z,97848.73
2023-02-25T06:08:29.637Z,97850.78
2023-02-25T06:10:35.679Z,97845.72
2023-02-25T06:12:41.167Z,97845.73
2023-02-25T06:14:49.795Z,97847.41
2023-02-25T06:16:58.602Z,97849.28
2023-02-25T06:19:04.577Z,97845.63
2023-02-25T06:21:09.835Z,97846.4
2023-02-25T06:23:15.243Z,97847.27
2023-02-25T06:25:20.730Z,97851.14
2023-02-25T06:27:26.386Z,97849.32
2023-02-25T06:29:32.078Z,97845.33
2023-02-25T06:31:38.138Z,97847.7
2023-02-25T06:33:43.818Z,97844.48
2023-02-25T06:35:49.285Z,97844.06
2023-02-25T06:37:55.009Z,97848.78
2023-02-25T06:40:00.315Z,97845.73
2023-02-25T06:42:05.816Z,97849.14
2023-02-25T06:44:11.132Z,97848.5
2023-02-25T06:46:19.384Z,97850.02
2023-02-25T06:48:26.094Z,97840.13
2023-02-25T06:50:31.787Z,97847.57
2023-02-25T06:52:37.283Z,97847.87
2023-02-25T06:54:42.687Z,97842.6
2023-02-25T06:56:48.128Z,97842.38
2023-02-25T06:58:56.469Z,97837.87
2023-02-25T07:01:01.764Z,97841.18
2023-02-25T07:03:07.553Z,97834.22
2023-02-25T07:05:13.504Z,97839.92
2023-02-25T07:07:19.486Z,97840.05
2023-02-25T07:09:26.259Z,97833.05
2023-02-25T07:11:32.105Z,97836.14
2023-02-25T07:13:38.148Z,97836.83
2023-02-25T07:15:44.012Z,97837.01
2023-02-25T07:17:50.088Z,97836.39
2023-02-25T07:19:56.600Z,97836.48
2023-02-25T07:22:02.767Z,97837.13
2023-02-25T07:24:08.917Z,97837.02
2023-02-25T07:26:14.825Z,97837.42
2023-02-25T07:28:20.872Z,97838.44
2023-02-25T07:30:27.067Z,97835.5
2023-02-25T07:32:33.760Z,97842.44
2023-02-25T07:34:39.720Z,97841.5
2023-02-25T07:36:45.749Z,97841.64
2023-02-25T07:38:51.972Z,97842.39
2023-02-25T07:40:58.287Z,97844.02
2023-02-25T07:43:04.970Z,97842
2023-02-25T07:45:11.405Z,97843.23
2023-02-25T07:47:17.764Z,97844.88
2023-02-25T07:49:24.175Z,97840.73
2023-02-25T07:51:30.957Z,97841.59
2023-02-25T07:53:37.261Z,97842.94
2023-02-25T07:55:43.599Z,97842.46
2023-02-25T07:57:50.261Z,97844.8
2023-02-25T07:59:56.966Z,97840.99
2023-02-25T08:02:03.149Z,97843.55
2023-02-25T08:04:09.698Z,97843.95
2023-02-25T08:06:16.260Z,97842.06
2023-02-25T08:08:22.953Z,97851.03
2023-02-25T08:10:30.319Z,97848.94
2023-02-25T08:12:36.514Z,97846.49
2023-02-25T08:14:42.452Z,97845.53
2023-02-25T08:16:48.568Z,97846.17
2023-02-25T08:18:55.317Z,97854.32
2023-02-25T08:21:04.163Z,97849.08
2023-02-25T08:23:12.137Z,97849.13
2023-02-25T08:25:18.854Z,97847.4
2023-02-25T08:27:25.183Z,97844.28
2023-02-25T08:29:31.857Z,97842.23
2023-02-25T08:31:38.982Z,97842.84
2023-02-25T08:33:46.286Z,97838.83
2023-02-25T08:35:53.443Z,97834.28
2023-02-25T08:37:59.474Z,97834.31
2023-02-25T08:40:05.712Z,97830.44
2023-02-25T08:42:11.977Z,97831.13
2023-02-25T08:44:18.560Z,97827.71
2023-02-25T08:46:25.238Z,97827.46
2023-02-25T08:48:32.991Z,97828.5
2023-02-25T08:50:39.219Z,97823.2
2023-02-25T08:52:45.395Z,97824.83
2023-02-25T08:54:51.768Z,97820.24
2023-02-25T08:56:57.779Z,97814.89
2023-02-25T08:59:04.206Z,97816.2
2023-02-25T09:01:10.746Z,97822.34
2023-02-25T09:03:16.991Z,97821.75
2023-02-25T09:05:23.242Z,97822.2
2023-02-25T09:07:29.442Z,97821.7
2023-02-25T09:09:36.644Z,97819.97
2023-02-25T09:11:42.560Z,97821.16
2023-02-25T09:13:48.592Z,97815.78
2023-02-25T09:15:55.262Z,97813.59
2023-02-25T09:18:01.088Z,97817.42
2023-02-25T09:20:06.909Z,97803.25
2023-02-25T09:22:14.902Z,97798.97
2023-02-25T09:24:21.505Z,97788.88
2023-02-25T09:26:30.176Z,97793.91
2023-02-25T09:28:36.658Z,97792.88
2023-02-25T09:30:43.095Z,97788.75
2023-02-25T09:32:49.869Z,97790.41
2023-02-25T09:34:56.716Z,97787.91
2023-02-25T09:37:09.384Z,97790.81
2023-02-25T09:39:15.356Z,97790.31
2023-02-25T09:41:22.018Z,97791.66
2023-02-25T09:43:29.396Z,97783.16
2023-02-25T09:45:35.557Z,97783.08
2023-02-25T09:47:42.218Z,97784.13
2023-02-25T09:49:48.664Z,97786.93
2023-02-25T09:51:54.937Z,97796.77
2023-02-25T09:54:01.429Z,97802.19
2023-02-25T09:56:08.313Z,97802.41
2023-02-25T09:58:14.714Z,97805.7
2023-02-25T10:00:20.526Z,97802.64
2023-02-25T10:02:27.527Z,97804.71
2023-02-25T10:04:34.356Z,97799
2023-02-25T10:06:43.054Z,97795
2023-02-25T10:08:50.482Z,97794.79
2023-02-25T10:10:58.111Z,97795.19
2023-02-25T10:13:04.474Z,97792.19
2023-02-25T10:15:10.916Z,97794.41
2023-02-25T10:17:17.247Z,97799.04
2023-02-25T10:19:23.460Z,97797.59
2023-02-25T10:21:30.850Z,97797.11
2023-02-25T10:23:37.991Z,97791.84
2023-02-25T10:25:44.540Z,97787.05
2023-02-25T10:27:50.758Z,97790.78
2023-02-25T10:29:58.802Z,97791.06
2023-02-25T10:32:06.559Z,97788.7
2023-02-25T10:34:14.010Z,97786.95
2023-02-25T10:36:20.484Z,97783.94
2023-02-25T10:38:26.806Z,97783.2
2023-02-25T10:40:32.981Z,97782.52
2023-02-25T10:42:42.173Z,97788.06
2023-02-25T10:44:48.909Z,97786.39
2023-02-25T10:46:54.935Z,97782.94
2023-02-25T10:49:01.461Z,97789.95
2023-02-25T10:51:08.124Z,97785.38
2023-02-25T10:53:14.364Z,97781.52
2023-02-25T10:55:20.576Z,97780.61
2023-02-25T10:57:26.574Z,97775.12
2023-02-25T10:59:33.872Z,97778.69
2023-02-25T11:01:40.469Z,97788.53
2023-02-25T11:03:46.973Z,97799.06
2023-02-25T11:05:53.407Z,97803.66
2023-02-25T11:07:59.795Z,97803.42
2023-02-25T11:10:06.362Z,97809.9
2023-02-25T11:12:13.235Z,97807.27
2023-02-25T11:14:19.614Z,97813.2
2023-02-25T11:16:26.334Z,97813.68
2023-02-25T11:18:33.514Z,97814.37
2023-02-25T11:20:40.683Z,97809.48
2023-02-25T11:22:46.875Z,97812.41
2023-02-25T11:24:54.349Z,97812.47
2023-02-25T11:27:00.755Z,97811.86
2023-02-25T11:29:07.911Z,97810.92
2023-02-25T11:31:14.956Z,97811.64
2023-02-25T11:33:23.515Z,97811.37
2023-02-25T11:35:30.025Z,97812.89
2023-02-25T11:37:36.731Z,97815.22
2023-02-25T11:39:49.180Z,97817.52
2023-02-25T11:41:55.873Z,97813.27
2023-02-25T11:44:04.703Z,97812.56
2023-02-25T11:46:11.670Z,97816.5
2023-02-25T11:48:18.882Z,97816.49
2023-02-25T11:50:25.373Z,97817.08
2023-02-25T11:52:33.219Z,97815.19
2023-02-25T11:54:39.565Z,97817.09
2023-02-25T11:56:46.011Z,97815.55
2023-02-25T11:58:52.337Z,97819.78
2023-02-25T12:00:59.478Z,97819.2
2023-02-25T12:03:07.019Z,97819
2023-02-25T12:05:14.727Z,97819.68
2023-02-25T12:07:21.156Z,97808.72
2023-02-25T12:09:27.736Z,97804.63
2023-02-25T12:11:34.125Z,97804.99
2023-02-25T12:13:41.132Z,97807.2
2023-02-25T12:15:47.749Z,97804.2
2023-02-25T12:17:56.201Z,97801
2023-02-25T12:20:03.455Z,97802
2023-02-25T12:22:09.926Z,97804.86
2023-02-25T12:24:17.020Z,97801.38
2023-02-25T12:26:24.079Z,97800
2023-02-25T12:28:30.877Z,97799.25
2023-02-25T12:30:38.521Z,97799.61
2023-02-25T12:32:44.704Z,97804.12
2023-02-25T12:34:51.843Z,97800.32
2023-02-25T12:36:59.765Z,97802.7
2023-02-25T12:39:06.464Z,97806.12
2023-02-25T12:41:13.555Z,97806.92
2023-02-25T12:43:20.618Z,97804.34
2023-02-25T12:45:27.943Z,97811.45
2023-02-25T12:47:34.676Z,97810.99
2023-02-25T12:49:41.541Z,97814.19
2023-02-25T12:51:48.004Z,97809.59
2023-02-25T12:53:54.564Z,97809.84
2023-02-25T12:56:00.990Z,97812.25
2023-02-25T12:58:07.285Z,97813.27
2023-02-25T13:00:13.370Z,97809.86
2023-02-25T13:02:19.694Z,97807.16
2023-02-25T13:04:26.326Z,97806.12
2023-02-25T13:06:32.308Z,97813.34
2023-02-25T13:08:38.794Z,97815.44
2023-02-25T13:10:45.767Z,97812.13
2023-02-25T13:12:52.749Z,97815.82
2023-02-25T13:14:59.402Z,97814.41
2023-02-25T13:17:05.978Z,97815.44
2023-02-25T13:19:12.381Z,97815.48
2023-02-25T13:21:18.430Z,97816.38
2023-02-25T13:23:25.235Z,97812.75
2023-02-25T13:25:32.373Z,97814.02
2023-02-25T13:27:39.402Z,97815.5
2023-02-25T13:29:48.902Z,97813.31
2023-02-25T13:31:56.994Z,97815.48
2023-02-25T13:34:05.761Z,97820.53
2023-02-25T13:36:12.595Z,97817.67
2023-02-25T13:38:19.199Z,97822.06
2023-02-25T13:40:29.476Z,97828.66
2023-02-25T13:42:37.633Z,97828.71
2023-02-25T13:44:44.440Z,97830.77
2023-02-25T13:46:51.212Z,97833.79
2023-02-25T13:48:57.198Z,97835.48
2023-02-25T13:51:05.315Z,97837.77
2023-02-25T13:53:12.107Z,97847.41
2023-02-25T13:55:19.017Z,97850.41
2023-02-25T13:57:25.719Z,97854.39
2023-02-25T13:59:33.059Z,97858.7
2023-02-25T14:01:40.689Z,97871.88
2023-02-25T14:03:47.715Z,97887.44
2023-02-25T14:05:53.615Z,97895.92
2023-02-25T14:07:59.395Z,97902.11
2023-02-25T14:10:05.677Z,97902.12
2023-02-25T14:12:15.459Z,97901.52
2023-02-25T14:14:23.796Z,97904.61
2023-02-25T14:16:32.306Z,97910.5
2023-02-25T14:18:40.070Z,97915.58
2023-02-25T14:20:48.161Z,97919.2
2023-02-25T14:22:55.346Z,97922.09
2023-02-25T14:25:06.060Z,97925.61
2023-02-25T14:27:12.586Z,97927.05
2023-02-25T14:29:19.571Z,97933.5
2023-02-25T14:31:29.634Z,97935.94
2023-02-25T14:33:38.506Z,97935.31
2023-02-25T14:35:48.224Z,97943.84
2023-02-25T14:37:56.138Z,97946.04
2023-02-25T14:40:04.210Z,97942.42
2023-02-25T14:42:11.388Z,97947.7
2023-02-25T14:44:20.104Z,97950.52
2023-02-25T14:46:28.873Z,97955.72
2023-02-25T14:48:37.281Z,97953.06
2023-02-25T14:50:45.270Z,97956.13
2023-02-25T14:52:51.804Z,97955.83
2023-02-25T14:55:00.394Z,97957.38
2023-02-25T14:57:12.387Z,97961.81
2023-02-25T14:59:21.456Z,97967.03
2023-02-25T15:01:30.338Z,97969.58
2023-02-25T15:03:40.055Z,97970.94
2023-02-25T15:05:49.168Z,97974.04
2023-02-25T15:07:56.658Z,97980.39
2023-02-25T15:10:03.238Z,97984.61
2023-02-25T15:12:10.422Z,97983.21
2023-02-25T15:14:17.904Z,97991.89
2023-02-25T15:16:24.337Z,97997.92
2023-02-25T15:18:32.146Z,97996.89
2023-02-25T15:20:40.661Z,98002.16
2023-02-25T15:22:49.884Z,98007.02
2023-02-25T15:24:56.736Z,98004.18
2023-02-25T15:27:06.590Z,98012.7
2023-02-25T15:29:14.235Z,98017.16
2023-02-25T15:31:23.373Z,98027.07
2023-02-25T15:33:30.742Z,98030.68
2023-02-25T15:35:39.799Z,98032.57
2023-02-25T15:37:47.234Z,98032.66
2023-02-25T15:39:58.250Z,98035.01
2023-02-25T15:42:06.666Z,98039.25
2023-02-25T15:44:15.157Z,98042.91
2023-02-25T15:46:24.179Z,98044.84
2023-02-25T15:48:32.844Z,98047.62
2023-02-25T15:50:41.797Z,98052.98
2023-02-25T15:52:53.991Z,98055.91
2023-02-25T15:55:02.199Z,98057.69
2023-02-25T15:57:11.257Z,98058.27
2023-02-25T15:59:19.503Z,98060.86
2023-02-25T16:01:28.070Z,98067.36
2023-02-25T16:03:37.401Z,98064.73
2023-02-25T16:05:52.422Z,98074.18
2023-02-25T16:08:00.131Z,98078.69
2023-02-25T16:10:08.277Z,98077.11
2023-02-25T16:12:18.425Z,98082.92
2023-02-25T16:14:26.822Z,98085.05
2023-02-25T16:16:35.803Z,98091.42
2023-02-25T16:18:47.691Z,98085.84
2023-02-25T16:20:58.541Z,98093.53
2023-02-25T16:23:08.863Z,98093.23
2023-02-25T16:25:16.718Z,98095.89
2023-02-25T16:27:24.806Z,98095.48
2023-02-25T16:29:33.218Z,98097.61
2023-02-25T16:31:41.531Z,98101.3
2023-02-25T16:33:49.460Z,98107.75
2023-02-25T16:36:09.682Z,98112.27
2023-02-25T16:38:18.113Z,98116.53
2023-02-25T16:40:27.006Z,98117.16
2023-02-25T16:42:35.222Z,98119.19
2023-02-25T16:44:48.841Z,98126.61
2023-02-25T16:46:59.074Z,98124.38
2023-02-25T16:49:10.784Z,98127.18
2023-02-25T16:51:20.542Z,98128.95
2023-02-25T16:53:33.172Z,98137.34
2023-02-25T16:55:42.517Z,98139.62
2023-02-25T16:57:57.482Z,98140.67
2023-02-25T17:00:04.542Z,98144
2023-02-25T17:02:19.014Z,98148.7
2023-02-25T17:04:26.872Z,98145.04
2023-02-25T17:06:34.418Z,98150.4
2023-02-25T17:08:43.051Z,98153.36
2023-02-25T17:10:51.670Z,98156.84
2023-02-25T17:12:59.329Z,98160.98
2023-02-25T17:15:14.548Z,98166.8
2023-02-25T17:17:23.051Z,98168.74
2023-02-25T17:19:33.001Z,98169.64
2023-02-25T17:21:46.305Z,98175.33
2023-02-25T17:23:58.353Z,98174.67
2023-02-25T17:26:06.889Z,98177.2
2023-02-25T17:28:20.088Z,98180.14
2023-02-25T17:30:29.324Z,98183.68
2023-02-25T17:32:37.840Z,98182.35
2023-02-25T17:34:50.307Z,98180.72
2023-02-25T17:37:00.172Z,98185.14
2023-02-25T17:39:10.250Z,98188.97
2023-02-25T17:41:20.403Z,98192.16
2023-02-25T17:43:36.713Z,98197.37
2023-02-25T17:45:45.300Z,98198.34
2023-02-25T17:47:55.625Z,98203.42
2023-02-25T17:50:06.317Z,98205.11
2023-02-25T17:52:13.745Z,98205.88
2023-02-25T17:54:24.413Z,98204.66
2023-02-25T17:56:37.301Z,98208.47
2023-02-25T17:58:47.773Z,98217.2
2023-02-25T18:00:57.724Z,98217.67
2023-02-25T18:03:06.421Z,98221.94
2023-02-25T18:05:17.781Z,98216.88
2023-02-25T18:07:28.517Z,98225.59
2023-02-25T18:09:37.343Z,98221.38
2023-02-25T18:11:47.635Z,98228.88
2023-02-25T18:14:01.532Z,98236.8
2023-02-25T18:16:14.975Z,98239.34
2023-02-25T18:18:26.499Z,98243.28
2023-02-25T18:20:35.000Z,98244.68
2023-02-25T18:22:44.823Z,98251.05
2023-02-25T18:24:55.084Z,98253.66
2023-02-25T18:27:04.068Z,98253.84
2023-02-25T18:29:11.423Z,98256.84
2023-02-25T18:31:20.822Z,98257.81
2023-02-25T18:33:30.744Z,98262.73
2023-02-25T18:35:41.301Z,98265.91
2023-02-25T18:37:51.764Z,98268.02
2023-02-25T18:40:02.718Z,98266.36
2023-02-25T18:42:13.145Z,98268.57
2023-02-25T18:44:25.918Z,98275.03
2023-02-25T18:46:36.271Z,98280.48
2023-02-25T18:48:43.552Z,98281.58
2023-02-25T18:50:53.529Z,98283.84
2023-02-25T18:53:03.373Z,98283.92
2023-02-25T18:55:15.627Z,98294.69
2023-02-25T18:57:24.992Z,98294.77
2023-02-25T18:59:34.712Z,98298.28
2023-02-25T19:01:44.885Z,98298.03
2023-02-25T19:03:55.587Z,98311.02
2023-02-25T19:06:04.830Z,98311.92
2023-02-25T19:08:14.043Z,98313.86
2023-02-25T19:10:24.284Z,98316.06
2023-02-25T19:12:32.833Z,98319.19
2023-02-25T19:14:45.465Z,98323.57
2023-02-25T19:17:05.561Z,98323.89
2023-02-25T19:19:16.068Z,98327.6
2023-02-25T19:21:26.691Z,98327.44
2023-02-25T19:23:36.944Z,98332.16
2023-02-25T19:25:47.841Z,98335.34
2023-02-25T19:28:01.103Z,98337.8
2023-02-25T19:30:10.964Z,98340.97
2023-02-25T19:32:20.556Z,98343.6
2023-02-25T19:34:29.966Z,98349.38
2023-02-25T19:36:40.121Z,98354.86
2023-02-25T19:39:01.298Z,98356.6
2023-02-25T19:41:12.881Z,98364.27
2023-02-25T19:43:22.198Z,98367.12
2023-02-25T19:45:38.258Z,98375.55
2023-02-25T19:47:48.221Z,98377.81
2023-02-25T19:49:59.397Z,98385.34
2023-02-25T19:52:09.219Z,98389.02
2023-02-25T19:54:18.085Z,98396.37
2023-02-25T19:56:29.148Z,98394.27
2023-02-25T19:58:39.025Z,98398.33
2023-02-25T20:00:49.480Z,98400.21
2023-02-25T20:02:59.845Z,98407.32
2023-02-25T20:05:09.687Z,98399.82
2023-02-25T20:07:24.171Z,98410.02
2023-02-25T20:09:32.278Z,98413.7
2023-02-25T20:11:41.361Z,98413.37
2023-02-25T20:13:51.813Z,98420.13
2023-02-25T20:16:04.375Z,98423.55
2023-02-25T20:18:14.024Z,98432.69
2023-02-25T20:20:21.788Z,98435.88
2023-02-25T20:22:30.939Z,98435.16
2023-02-25T20:24:39.194Z,98446.83
2023-02-25T20:26:50.765Z,98446.98
2023-02-25T20:29:00.233Z,98454.73
2023-02-25T20:31:11.762Z,98457.44
2023-02-25T20:33:20.447Z,98461.91
2023-02-25T20:35:32.588Z,98466.27
2023-02-25T20:37:42.867Z,98466.81
2023-02-25T20:39:52.017Z,98467.97
2023-02-25T20:42:08.152Z,98478.9
2023-02-25T20:44:20.006Z,98481.67
2023-02-25T20:46:27.912Z,98484.55
2023-02-25T20:48:38.597Z,98487.7
2023-02-25T20:50:50.084Z,98486.09
2023-02-25T20:53:02.995Z,98490.9
2023-02-25T20:55:14.477Z,98495.86
2023-02-25T20:57:24.485Z,98494.47
2023-02-25T20:59:34.313Z,98502.46
2023-02-25T21:01:43.598Z,98507.36
2023-02-25T21:03:59.628Z,98507.59
2023-02-25T21:06:09.304Z,98517.23
2023-02-25T21:08:19.032Z,98517.8
2023-02-25T21:10:27.906Z,98523.48
2023-02-25T21:12:40.192Z,98527.16
2023-02-25T21:14:48.982Z,98531.31
2023-02-25T21:16:57.050Z,98538.56
2023-02-25T21:19:06.096Z,98543.31
2023-02-25T21:21:14.311Z,98535.63
2023-02-25T21:23:25.188Z,98544.27
2023-02-25T21:25:33.445Z,98551.53
2023-02-25T21:27:42.962Z,98555.95
2023-02-25T21:29:50.415Z,98559.02
2023-02-25T21:31:58.412Z,98560.39
2023-02-25T21:34:06.100Z,98562.44
2023-02-25T21:36:13.668Z,98569.11
2023-02-25T21:38:20.989Z,98573.52
2023-02-25T21:40:29.321Z,98580.2
2023-02-25T21:42:36.240Z,98583.2
2023-02-25T21:44:43.724Z,98585.08
2023-02-25T21:46:50.797Z,98586.96
2023-02-25T21:49:00.178Z,98588.02
2023-02-25T21:51:07.469Z,98592.61
2023-02-25T21:53:15.734Z,98598.8
2023-02-25T21:55:22.645Z,98600.98
2023-02-25T21:57:29.198Z,98607.23
2023-02-25T21:59:37.792Z,98607.45
2023-02-25T22:01:44.233Z,98613.27
2023-02-25T22:03:52.556Z,98614.28
2023-02-25T22:05:59.574Z,98615.92
2023-02-25T22:08:06.220Z,98620.88
2023-02-25T22:10:14.560Z,98624.31
2023-02-25T22:12:22.080Z,98627.98
2023-02-25T22:14:29.395Z,98632.29
2023-02-25T22:16:36.128Z,98635.96
2023-02-25T22:18:43.442Z,98638.33
2023-02-25T22:20:50.379Z,98641.32
2023-02-25T22:22:56.794Z,98644.11
2023-02-25T22:25:04.314Z,98645.89
2023-02-25T22:27:13.044Z,98647.02
2023-02-25T22:29:19.161Z,98655.09
2023-02-25T22:31:25.313Z,98655.32
2023-02-25T22:33:32.588Z,98658.49
2023-02-25T22:35:38.954Z,98663.81
2023-02-25T22:37:44.949Z,98666.82
2023-02-25T22:39:50.823Z,98670.95
2023-02-25T22:41:56.342Z,98674.72
2023-02-25T22:44:01.902Z,98679.33
2023-02-25T22:46:07.841Z,98680.7
2023-02-25T22:48:14.607Z,98683.73
2023-02-25T22:50:20.342Z,98685.53
2023-02-25T22:52:26.170Z,98690.55
2023-02-25T22:54:32.221Z,98692.08
2023-02-25T22:56:38.989Z,98695.92
2023-02-25T22:58:45.157Z,98699.42
2023-02-25T23:00:50.904Z,98706.41
2023-02-25T23:02:57.070Z,98710.67
2023-02-25T23:05:03.531Z,98712.83
2023-02-25T23:07:09.255Z,98716.77
2023-02-25T23:09:14.802Z,98718.89
2023-02-25T23:11:20.539Z,98722.06
2023-02-25T23:13:28.801Z,98723.85
2023-02-25T23:15:34.366Z,98723.55
2023-02-25T23:17:40.173Z,98729.27
2023-02-25T23:19:45.438Z,98728.68
2023-02-25T23:21:50.916Z,98731.45
2023-02-25T23:23:57.183Z,98731.96
2023-02-25T23:26:03.789Z,98746.39
2023-02-25T23:28:09.810Z,98747.72
2023-02-25T23:30:15.314Z,98751.06
2023-02-25T23:32:20.927Z,98754.33
2023-02-25T23:34:26.684Z,98759.91
2023-02-25T23:36:32.170Z,98762
2023-02-25T23:38:37.715Z,98764.4
2023-02-25T23:40:43.448Z,98766.76
2023-02-25T23:42:48.950Z,98768.27
2023-02-25T23:44:54.175Z,98772.89
2023-02-25T23:47:00.388Z,98778.31
2023-02-25T23:49:06.423Z,98777.67
2023-02-25T23:51:13.665Z,98776.56
2023-02-25T23:53:19.886Z,98789.67
2023-02-25T23:55:25.413Z,98793.38
2023-02-25T23:57:30.780Z,98802.05
2023-02-25T23:59:36.124Z,98801.28
